createdAt,value
2022-12-08T00:01:13.524Z,3.30
2022-12-08T00:03:40.108Z,3.60
2022-12-08T00:06:25.521Z,3.22
2022-12-08T00:09:10.266Z,3.38
2022-12-08T00:11:36.784Z,3.35
2022-12-08T00:14:03.337Z,3.60
2022-12-08T00:16:29.690Z,3.22
2022-12-08T00:18:56.086Z,3.53
2022-12-08T00:21:22.478Z,3.13
2022-12-08T00:23:48.828Z,3.40
2022-12-08T00:26:15.082Z,3.33
2022-12-08T00:28:41.323Z,3.40
2022-12-08T00:31:08.720Z,4.10
2022-12-08T00:33:35.011Z,3.30
2022-12-08T00:36:08.071Z,3.35
2022-12-08T00:38:34.704Z,3.58
2022-12-08T00:41:00.935Z,3.78
2022-12-08T00:43:27.298Z,3.65
2022-12-08T00:45:53.691Z,3.20
2022-12-08T00:48:20.065Z,3.17
2022-12-08T00:50:46.295Z,3.70
2022-12-08T00:53:12.641Z,3.45
2022-12-08T00:55:38.939Z,3.60
2022-12-08T00:58:05.221Z,3.28
2022-12-08T01:00:31.469Z,3.50
2022-12-08T01:02:57.725Z,3.00
2022-12-08T01:05:24.090Z,3.15
2022-12-08T01:07:50.385Z,3.30
2022-12-08T01:10:16.722Z,3.20
2022-12-08T01:12:42.987Z,3.13
2022-12-08T01:15:09.458Z,3.05
2022-12-08T01:17:36.799Z,2.72
2022-12-08T01:20:03.958Z,3.10
2022-12-08T01:22:30.338Z,3.00
2022-12-08T01:24:56.650Z,2.70
2022-12-08T01:27:22.932Z,2.72
2022-12-08T01:29:49.175Z,2.83
2022-12-08T01:32:15.389Z,3.38
2022-12-08T01:34:41.678Z,2.00
2022-12-08T01:37:07.918Z,2.20
2022-12-08T01:39:34.697Z,2.50
2022-12-08T01:42:00.919Z,2.40
2022-12-08T01:44:27.199Z,2.50
2022-12-08T01:46:54.102Z,2.50
2022-12-08T01:49:31.340Z,2.25
2022-12-08T01:52:04.779Z,2.55
2022-12-08T01:54:36.802Z,2.35
2022-12-08T01:57:07.112Z,2.42
2022-12-08T01:59:35.146Z,2.40
2022-12-08T02:02:01.756Z,2.42
2022-12-08T02:04:28.088Z,2.45
2022-12-08T02:06:54.598Z,2.67
2022-12-08T02:09:21.282Z,2.28
2022-12-08T02:11:48.167Z,3.20
2022-12-08T02:14:14.585Z,2.92
2022-12-08T02:16:58.826Z,2.50
2022-12-08T02:19:43.526Z,2.85
2022-12-08T02:22:12.644Z,2.53
2022-12-08T02:24:41.823Z,3.83
2022-12-08T02:27:08.129Z,4.15
2022-12-08T02:30:12.740Z,4.07
2022-12-08T02:32:57.799Z,4.55
2022-12-08T02:35:24.270Z,4.80
2022-12-08T02:37:57.352Z,4.78
2022-12-08T02:40:43.888Z,5.30
2022-12-08T02:43:14.374Z,5.40
2022-12-08T02:45:47.623Z,4.88
2022-12-08T02:48:14.378Z,5.18
2022-12-08T02:50:40.638Z,5.40
2022-12-08T02:55:50.987Z,5.13
2022-12-08T02:58:20.114Z,4.65
2022-12-08T03:00:58.305Z,5.05
2022-12-08T03:03:24.577Z,4.38
2022-12-08T03:05:50.838Z,4.10
2022-12-08T03:08:22.926Z,4.18
2022-12-08T03:10:52.519Z,3.67
2022-12-08T03:13:21.236Z,3.38
2022-12-08T03:15:48.956Z,3.22
2022-12-08T03:18:16.497Z,2.95
2022-12-08T03:20:43.422Z,2.88
2022-12-08T03:23:11.498Z,2.03
2022-12-08T03:25:41.009Z,2.28
2022-12-08T03:28:07.483Z,2.10
2022-12-08T03:30:37.059Z,1.70
2022-12-08T03:33:17.840Z,1.85
2022-12-08T03:38:15.409Z,1.70
2022-12-08T03:40:41.798Z,1.63
2022-12-08T03:43:08.074Z,1.90
2022-12-08T03:45:34.369Z,1.60
2022-12-08T03:48:00.629Z,1.20
2022-12-08T03:50:27.110Z,1.10
2022-12-08T03:52:53.346Z,0.98
2022-12-08T03:55:21.320Z,1.15
2022-12-08T03:57:47.591Z,0.75
2022-12-08T04:00:14.989Z,0.80
2022-12-08T04:02:41.304Z,0.80
2022-12-08T04:05:07.806Z,0.85
2022-12-08T04:07:34.115Z,0.90
2022-12-08T04:10:00.393Z,0.80
2022-12-08T04:12:26.665Z,0.90
2022-12-08T04:14:52.928Z,0.60
2022-12-08T04:17:19.168Z,0.60
2022-12-08T04:19:45.445Z,0.68
2022-12-08T04:22:11.762Z,0.90
2022-12-08T04:24:37.983Z,0.80
2022-12-08T04:27:04.295Z,0.90
2022-12-08T04:29:30.662Z,0.98
2022-12-08T04:31:57.014Z,0.83
2022-12-08T04:34:23.331Z,0.88
2022-12-08T04:36:49.626Z,1.00
2022-12-08T04:39:15.902Z,1.30
2022-12-08T04:41:42.199Z,1.38
2022-12-08T04:44:08.491Z,1.20
2022-12-08T04:46:37.834Z,1.45
2022-12-08T04:49:07.984Z,2.30
2022-12-08T04:51:34.257Z,1.67
2022-12-08T04:54:00.538Z,2.10
2022-12-08T04:56:26.800Z,2.33
2022-12-08T04:58:53.096Z,1.98
2022-12-08T05:01:19.382Z,1.90
2022-12-08T05:03:45.641Z,1.70
2022-12-08T05:06:12.982Z,1.75
2022-12-08T05:08:39.225Z,1.52
2022-12-08T05:11:06.378Z,1.50
2022-12-08T05:13:32.771Z,1.45
2022-12-08T05:16:03.127Z,1.30
2022-12-08T05:18:29.386Z,1.17
2022-12-08T05:20:55.606Z,1.70
2022-12-08T05:23:21.878Z,1.35
2022-12-08T05:25:48.186Z,1.15
2022-12-08T05:28:40.192Z,1.10
2022-12-08T05:31:00.784Z,0.80
2022-12-08T05:33:27.097Z,1.00
2022-12-08T05:35:53.330Z,1.20
2022-12-08T05:38:20.308Z,0.90
2022-12-08T05:40:46.606Z,2.10
2022-12-08T05:43:12.852Z,1.08
2022-12-08T05:45:39.178Z,0.90
2022-12-08T05:48:05.604Z,1.10
2022-12-08T05:50:31.908Z,1.23
2022-12-08T05:52:58.243Z,1.00
2022-12-08T05:55:24.485Z,0.90
2022-12-08T05:57:50.730Z,0.68
2022-12-08T06:00:17.164Z,0.77
2022-12-08T06:02:43.534Z,0.73
2022-12-08T06:05:09.907Z,0.80
2022-12-08T06:07:36.186Z,0.60
2022-12-08T06:10:03.051Z,0.77
2022-12-08T06:12:29.596Z,0.90
2022-12-08T06:14:55.881Z,0.82
2022-12-08T06:17:22.166Z,0.70
2022-12-08T06:19:48.454Z,0.90
2022-12-08T06:22:14.775Z,1.10
2022-12-08T06:24:41.065Z,0.98
2022-12-08T06:27:07.374Z,0.85
2022-12-08T06:29:33.653Z,0.80
2022-12-08T06:31:59.936Z,0.85
2022-12-08T06:34:26.311Z,0.85
2022-12-08T06:36:52.607Z,0.90
2022-12-08T06:39:18.862Z,0.90
2022-12-08T06:42:14.483Z,1.00
2022-12-08T06:44:40.823Z,1.50
2022-12-08T06:47:07.081Z,1.38
2022-12-08T06:49:33.340Z,1.10
2022-12-08T06:51:59.580Z,1.20
2022-12-08T06:54:26.083Z,0.80
2022-12-08T06:56:52.326Z,1.20
2022-12-08T06:59:19.536Z,0.93
2022-12-08T07:01:46.344Z,1.00
2022-12-08T07:04:12.617Z,1.10
2022-12-08T07:06:38.954Z,1.13
2022-12-08T07:09:05.263Z,1.55
2022-12-08T07:11:31.513Z,1.20
2022-12-08T07:13:57.917Z,1.50
2022-12-08T07:16:24.410Z,1.80
2022-12-08T07:18:50.708Z,1.80
2022-12-08T07:21:17.507Z,2.17
2022-12-08T07:23:50.175Z,2.08
2022-12-08T07:26:20.435Z,2.00
2022-12-08T07:28:46.742Z,2.30
2022-12-08T07:31:23.821Z,1.60
2022-12-08T07:33:52.936Z,1.70
2022-12-08T07:36:19.325Z,1.73
2022-12-08T07:38:45.644Z,1.75
2022-12-08T07:41:13.365Z,1.98
2022-12-08T07:43:40.150Z,2.13
2022-12-08T07:46:06.445Z,1.75
2022-12-08T07:48:32.798Z,2.10
2022-12-08T07:51:02.768Z,2.35
2022-12-08T07:53:29.219Z,2.35
2022-12-08T07:55:55.545Z,2.00
2022-12-08T07:58:21.837Z,1.60
2022-12-08T08:00:48.212Z,1.60
2022-12-08T08:03:14.632Z,1.60
2022-12-08T08:05:40.894Z,1.00
2022-12-08T08:08:07.205Z,1.38
2022-12-08T08:10:33.490Z,1.10
2022-12-08T08:12:59.919Z,0.90
2022-12-08T08:15:27.410Z,1.25
2022-12-08T08:17:53.989Z,0.90
2022-12-08T08:20:20.890Z,1.08
2022-12-08T08:22:48.074Z,1.35
2022-12-08T08:25:15.255Z,1.00
2022-12-08T08:27:41.549Z,0.93
2022-12-08T08:30:09.056Z,0.98
2022-12-08T08:32:35.629Z,1.90
2022-12-08T08:35:01.977Z,1.05
2022-12-08T08:37:28.329Z,1.20
2022-12-08T08:39:54.961Z,1.30
2022-12-08T08:42:21.182Z,0.98
2022-12-08T08:44:47.530Z,1.42
2022-12-08T08:47:13.827Z,1.70
2022-12-08T08:49:40.107Z,1.38
2022-12-08T08:52:06.547Z,1.83
2022-12-08T08:54:33.156Z,1.85
2022-12-08T08:57:01.590Z,1.50
2022-12-08T08:59:28.251Z,1.15
2022-12-08T09:01:55.453Z,1.20
2022-12-08T09:04:22.372Z,1.30
2022-12-08T09:06:49.508Z,0.90
2022-12-08T09:09:16.477Z,0.80
2022-12-08T09:11:43.117Z,0.70
2022-12-08T09:14:11.366Z,0.90
2022-12-08T09:16:42.195Z,1.00
2022-12-08T09:19:09.166Z,0.95
2022-12-08T09:21:35.469Z,1.10
2022-12-08T09:24:01.844Z,1.10
2022-12-08T09:26:28.555Z,1.02
2022-12-08T09:28:55.429Z,0.70
2022-12-08T09:31:22.552Z,1.17
2022-12-08T09:33:51.417Z,0.95
2022-12-08T09:36:18.025Z,0.98
2022-12-08T09:38:44.328Z,0.90
2022-12-08T09:41:20.181Z,0.63
2022-12-08T09:43:57.924Z,1.00
2022-12-08T09:46:26.558Z,1.13
2022-12-08T09:48:57.665Z,0.80
2022-12-08T09:51:25.325Z,0.90
2022-12-08T09:53:56.431Z,1.05
2022-12-08T09:56:24.054Z,0.90
2022-12-08T09:58:51.864Z,1.25
2022-12-08T10:01:19.557Z,1.33
2022-12-08T10:03:46.345Z,1.20
2022-12-08T10:06:19.211Z,1.05
2022-12-08T10:08:49.866Z,0.70
2022-12-08T10:13:46.096Z,1.30
2022-12-08T10:16:25.404Z,0.98
2022-12-08T10:19:12.974Z,1.63
2022-12-08T10:21:39.794Z,2.55
2022-12-08T10:24:12.602Z,1.60
2022-12-08T10:26:39.064Z,1.77
2022-12-08T10:29:06.967Z,2.35
2022-12-08T10:31:33.308Z,2.20
2022-12-08T10:34:01.058Z,1.40
2022-12-08T10:36:47.099Z,1.20
2022-12-08T10:39:32.392Z,1.10
2022-12-08T10:42:08.222Z,0.90
2022-12-08T10:44:38.355Z,1.30
2022-12-08T10:47:11.430Z,1.17
2022-12-08T10:49:38.589Z,1.55
2022-12-08T10:52:09.176Z,1.40
2022-12-08T10:54:38.197Z,0.80
2022-12-08T10:57:04.478Z,0.88
2022-12-08T10:59:33.065Z,1.05
2022-12-08T11:02:00.108Z,1.05
2022-12-08T11:04:32.397Z,1.67
2022-12-08T11:06:58.654Z,1.00
2022-12-08T11:09:30.809Z,1.48
2022-12-08T11:11:58.510Z,1.02
2022-12-08T11:14:24.732Z,0.75
2022-12-08T11:16:53.592Z,1.27
2022-12-08T11:19:20.776Z,0.85
2022-12-08T11:21:47.582Z,1.40
2022-12-08T11:24:20.773Z,1.15
2022-12-08T11:27:05.394Z,1.00
2022-12-08T11:29:32.626Z,1.38
2022-12-08T11:32:14.374Z,1.60
2022-12-08T11:34:43.527Z,1.02
2022-12-08T11:37:22.916Z,1.20
2022-12-08T11:39:51.019Z,1.48
2022-12-08T11:42:20.453Z,1.25
2022-12-08T11:45:00.150Z,1.30
2022-12-08T11:47:28.444Z,1.50
2022-12-08T11:49:59.525Z,1.80
2022-12-08T11:52:42.061Z,1.80
2022-12-08T11:55:26.444Z,1.42
2022-12-08T11:57:54.709Z,0.90
2022-12-08T12:00:21.147Z,1.35
2022-12-08T12:02:51.275Z,1.00
2022-12-08T12:05:39.964Z,0.85
2022-12-08T12:08:18.825Z,1.10
2022-12-08T12:10:45.092Z,1.20
2022-12-08T12:13:29.954Z,1.40
2022-12-08T12:16:14.803Z,1.10
2022-12-08T12:18:55.881Z,0.80
2022-12-08T12:21:23.413Z,1.17
2022-12-08T12:23:54.283Z,1.00
2022-12-08T12:26:24.918Z,0.75
2022-12-08T12:28:57.478Z,1.13
2022-12-08T12:31:29.403Z,0.90
2022-12-08T12:34:03.405Z,0.93
2022-12-08T12:36:32.363Z,0.80
2022-12-08T12:39:01.965Z,1.20
2022-12-08T12:41:31.067Z,0.90
2022-12-08T12:44:09.213Z,0.95
2022-12-08T12:46:40.478Z,1.13
2022-12-08T12:49:25.646Z,1.05
2022-12-08T12:51:55.452Z,1.02
2022-12-08T12:54:22.887Z,1.17
2022-12-08T12:56:56.424Z,1.00
2022-12-08T12:59:22.649Z,1.10
2022-12-08T13:01:52.229Z,0.88
2022-12-08T13:04:18.728Z,0.82
2022-12-08T13:06:48.167Z,1.10
2022-12-08T13:09:21.893Z,1.10
2022-12-08T13:11:53.200Z,1.10
2022-12-08T13:14:26.526Z,1.13
2022-12-08T13:16:54.594Z,0.95
2022-12-08T13:19:21.291Z,0.90
2022-12-08T13:21:47.669Z,0.73
2022-12-08T13:24:19.799Z,0.70
2022-12-08T13:27:09.075Z,1.20
2022-12-08T13:29:37.233Z,1.15
2022-12-08T13:32:04.513Z,1.00
2022-12-08T13:34:49.251Z,1.30
2022-12-08T13:37:22.128Z,1.52
2022-12-08T13:39:53.289Z,1.50
2022-12-08T13:42:48.658Z,1.40
2022-12-08T13:45:27.897Z,1.98
2022-12-08T13:52:41.535Z,2.30
2022-12-08T13:57:02.427Z,2.53
2022-12-08T13:59:19.322Z,2.55
2022-12-08T14:01:47.107Z,2.38
2022-12-08T14:07:04.108Z,2.72
2022-12-08T14:09:36.965Z,2.35
2022-12-08T14:12:17.892Z,2.42
2022-12-08T14:15:02.373Z,2.90
2022-12-08T14:17:29.212Z,2.08
2022-12-08T14:20:00.015Z,2.65
2022-12-08T14:22:32.198Z,1.90
2022-12-08T14:24:58.498Z,2.10
2022-12-08T14:27:26.514Z,2.38
2022-12-08T14:29:55.647Z,2.70
2022-12-08T14:32:28.204Z,2.65
2022-12-08T14:35:06.701Z,2.60
2022-12-08T14:37:34.906Z,2.63
2022-12-08T14:40:05.015Z,2.85
2022-12-08T14:42:41.577Z,3.95
2022-12-08T14:45:10.655Z,3.00
2022-12-08T14:47:36.936Z,3.10
2022-12-08T14:50:04.725Z,3.50
2022-12-08T14:52:31.385Z,3.17
2022-12-08T14:54:58.082Z,3.35
2022-12-08T14:57:27.380Z,3.80
2022-12-08T14:59:53.687Z,3.20
2022-12-08T15:02:21.699Z,3.88
2022-12-08T15:04:58.479Z,5.15
2022-12-08T15:07:26.283Z,4.90
2022-12-08T15:10:07.947Z,4.70
2022-12-08T15:12:34.490Z,4.40
2022-12-08T15:15:09.649Z,4.00
2022-12-08T15:17:41.742Z,3.30
2022-12-08T15:20:33.182Z,3.75
2022-12-08T15:23:01.131Z,4.00
2022-12-08T15:25:27.434Z,4.28
2022-12-08T15:27:53.766Z,4.35
2022-12-08T15:30:20.281Z,3.90
2022-12-08T15:32:46.502Z,3.97
2022-12-08T15:35:13.390Z,4.03
2022-12-08T15:37:40.010Z,4.80
2022-12-08T15:40:07.238Z,4.30
2022-12-08T15:42:33.884Z,4.30
2022-12-08T15:45:00.124Z,4.88
2022-12-08T15:47:26.727Z,3.90
2022-12-08T15:49:53.048Z,4.53
2022-12-08T15:52:20.857Z,4.60
2022-12-08T15:54:47.158Z,4.97
2022-12-08T15:57:22.200Z,5.10
2022-12-08T15:59:56.172Z,5.70
2022-12-08T16:02:23.182Z,4.88
2022-12-08T16:07:38.257Z,5.82
2022-12-08T16:10:06.020Z,6.50
2022-12-08T16:15:57.109Z,5.40
2022-12-08T16:18:27.359Z,5.65
2022-12-08T16:23:44.712Z,5.85
2022-12-08T16:26:35.606Z,6.45
2022-12-08T16:29:02.278Z,4.85
2022-12-08T16:31:28.894Z,5.65
2022-12-08T16:33:55.323Z,5.78
2022-12-08T16:36:21.555Z,6.38
2022-12-08T16:38:47.786Z,6.20
2022-12-08T16:41:33.024Z,5.50
2022-12-08T16:44:03.790Z,7.45
2022-12-08T16:48:59.365Z,10.20
2022-12-08T16:51:27.345Z,9.50
2022-12-08T16:53:54.323Z,10.27
2022-12-08T16:56:24.075Z,11.60
2022-12-08T16:58:52.568Z,5.15
2022-12-08T17:01:19.371Z,8.60
2022-12-08T17:04:01.346Z,5.03
2022-12-08T17:06:32.149Z,4.85
2022-12-08T17:08:59.278Z,5.80
2022-12-08T17:11:28.287Z,4.95
2022-12-08T17:13:54.653Z,6.57
2022-12-08T17:16:21.628Z,6.43
2022-12-08T17:18:48.197Z,6.03
2022-12-08T17:21:15.394Z,6.70
2022-12-08T17:23:41.819Z,5.82
2022-12-08T17:26:08.210Z,5.60
2022-12-08T17:28:59.085Z,6.05
2022-12-08T17:31:24.678Z,6.47
2022-12-08T17:33:53.987Z,6.55
2022-12-08T17:36:21.811Z,6.72
2022-12-08T17:38:48.078Z,7.88
2022-12-08T17:41:14.309Z,9.07
2022-12-08T17:43:40.599Z,9.38
2022-12-08T17:46:06.930Z,8.23
2022-12-08T17:48:35.475Z,7.78
2022-12-08T17:51:01.951Z,11.68
2022-12-08T17:53:30.644Z,11.25
2022-12-08T17:55:59.234Z,8.65
2022-12-08T17:58:25.699Z,7.43
2022-12-08T18:00:52.336Z,7.60
2022-12-08T18:03:19.244Z,8.95
2022-12-08T18:05:45.824Z,10.27
2022-12-08T18:08:12.180Z,10.23
2022-12-08T18:10:38.697Z,9.90
2022-12-08T18:13:05.661Z,10.57
2022-12-08T18:15:37.476Z,10.80
2022-12-08T18:18:05.370Z,8.98
2022-12-08T18:20:31.714Z,11.05
2022-12-08T18:22:58.028Z,12.48
2022-12-08T18:25:24.495Z,12.30
2022-12-08T18:27:50.814Z,12.85
2022-12-08T18:30:18.033Z,14.88
2022-12-08T18:32:44.527Z,14.07
2022-12-08T18:35:11.526Z,15.35
2022-12-08T18:37:38.258Z,15.38
2022-12-08T18:40:04.941Z,15.98
2022-12-08T18:42:31.868Z,16.85
2022-12-08T18:45:02.724Z,23.75
2022-12-08T18:47:29.160Z,17.55
2022-12-08T18:49:55.530Z,23.60
2022-12-08T18:52:28.167Z,17.80
2022-12-08T18:55:06.268Z,17.67
2022-12-08T18:57:33.371Z,17.98
2022-12-08T18:59:59.669Z,13.25
2022-12-08T19:02:26.109Z,13.80
2022-12-08T19:04:55.110Z,15.35
2022-12-08T19:07:21.434Z,13.68
2022-12-08T19:09:47.734Z,17.23
2022-12-08T19:12:14.265Z,16.48
2022-12-08T19:14:40.799Z,13.85
2022-12-08T19:17:07.604Z,15.95
2022-12-08T19:19:34.341Z,14.40
2022-12-08T19:22:00.601Z,14.13
2022-12-08T19:24:26.924Z,17.67
2022-12-08T19:26:53.225Z,16.00
2022-12-08T19:29:19.510Z,35.72
2022-12-08T19:31:45.910Z,19.48
2022-12-08T19:34:13.213Z,18.80
2022-12-08T19:36:42.618Z,17.70
2022-12-08T19:39:34.643Z,17.00
2022-12-08T19:42:19.283Z,16.60
2022-12-08T19:44:54.536Z,19.15
2022-12-08T19:47:21.899Z,16.60
2022-12-08T19:49:48.261Z,18.23
2022-12-08T19:52:14.807Z,17.25
2022-12-08T19:54:41.102Z,16.63
2022-12-08T19:57:07.388Z,15.15
2022-12-08T19:59:33.721Z,15.40
2022-12-08T20:02:00.165Z,16.52
2022-12-08T20:04:27.172Z,15.55
2022-12-08T20:06:54.842Z,18.92
2022-12-08T20:09:23.183Z,20.55
2022-12-08T20:11:50.712Z,18.80
2022-12-08T20:14:17.950Z,22.13
2022-12-08T20:16:44.256Z,18.42
2022-12-08T20:19:10.770Z,18.20
2022-12-08T20:21:38.618Z,17.13
2022-12-08T20:24:04.953Z,21.58
2022-12-08T20:26:31.462Z,20.67
2022-12-08T20:28:57.773Z,21.80
2022-12-08T20:31:25.652Z,21.77
2022-12-08T20:33:52.588Z,20.95
2022-12-08T20:36:19.923Z,16.88
2022-12-08T20:38:46.912Z,16.15
2022-12-08T20:41:15.832Z,16.98
2022-12-08T20:43:42.781Z,18.95
2022-12-08T20:46:09.920Z,17.75
2022-12-08T20:48:36.392Z,19.00
2022-12-08T20:51:03.936Z,18.45
2022-12-08T20:53:30.608Z,18.00
2022-12-08T20:55:56.914Z,17.92
2022-12-08T20:58:23.535Z,18.13
2022-12-08T21:00:50.287Z,18.80
2022-12-08T21:03:17.626Z,17.25
2022-12-08T21:05:51.367Z,17.25
2022-12-08T21:08:19.710Z,17.65
2022-12-08T21:10:52.259Z,17.63
2022-12-08T21:13:18.587Z,16.15
2022-12-08T21:15:46.494Z,18.95
2022-12-08T21:18:13.652Z,18.08
2022-12-08T21:20:40.207Z,18.55
2022-12-08T21:23:06.562Z,17.65
2022-12-08T21:25:33.006Z,19.95
2022-12-08T21:27:59.289Z,18.73
2022-12-08T21:30:26.320Z,18.42
2022-12-08T21:32:52.761Z,19.50
2022-12-08T21:35:19.243Z,20.17
2022-12-08T21:37:45.620Z,18.80
2022-12-08T21:40:12.382Z,20.08
2022-12-08T21:42:45.083Z,20.25
2022-12-08T21:45:12.634Z,20.30
2022-12-08T21:47:39.732Z,21.98
2022-12-08T21:50:06.842Z,20.05
2022-12-08T21:52:36.117Z,19.98
2022-12-08T21:55:02.482Z,20.60
2022-12-08T21:57:28.837Z,20.05
2022-12-08T21:59:55.317Z,21.33
2022-12-08T22:02:22.876Z,20.27
2022-12-08T22:04:50.150Z,25.10
2022-12-08T22:07:17.034Z,21.10
2022-12-08T22:09:43.591Z,23.40
2022-12-08T22:12:11.847Z,24.17
2022-12-08T22:14:39.267Z,21.15
2022-12-08T22:17:06.136Z,20.00
2022-12-08T22:19:32.675Z,21.58
2022-12-08T22:21:58.973Z,20.95
2022-12-08T22:24:25.241Z,20.40
2022-12-08T22:26:51.795Z,20.30
2022-12-08T22:29:18.037Z,20.15
2022-12-08T22:31:44.340Z,21.42
2022-12-08T22:34:10.868Z,19.75
2022-12-08T22:36:37.315Z,21.15
2022-12-08T22:39:04.129Z,20.75
2022-12-08T22:41:30.468Z,21.15
2022-12-08T22:43:56.937Z,21.15
2022-12-08T22:46:24.614Z,22.60
2022-12-08T22:48:51.556Z,22.77
2022-12-08T22:51:18.174Z,22.33
2022-12-08T22:53:44.777Z,20.92
2022-12-08T22:56:12.078Z,21.02
2022-12-08T22:58:39.145Z,21.60
2022-12-08T23:01:05.969Z,21.00
2022-12-08T23:03:32.566Z,21.95
2022-12-08T23:05:59.200Z,21.70
2022-12-08T23:08:25.672Z,20.05
2022-12-08T23:10:53.223Z,21.15
2022-12-08T23:13:20.175Z,20.63
2022-12-08T23:15:46.452Z,20.70
2022-12-08T23:18:14.739Z,21.88
2022-12-08T23:20:41.449Z,22.30
2022-12-08T23:23:07.953Z,20.65
2022-12-08T23:25:34.193Z,21.25
2022-12-08T23:28:00.474Z,20.63
2022-12-08T23:30:26.774Z,21.75
2022-12-08T23:32:56.414Z,19.52
2022-12-08T23:35:22.874Z,21.65
2022-12-08T23:37:49.179Z,21.75
2022-12-08T23:40:15.648Z,21.25
2022-12-08T23:42:42.051Z,21.77
2022-12-08T23:45:09.003Z,20.98
2022-12-08T23:47:35.787Z,20.98
2022-12-08T23:50:02.503Z,22.17
2022-12-08T23:52:29.122Z,22.33
2022-12-08T23:54:55.590Z,21.33
2022-12-08T23:57:21.823Z,22.00
2022-12-08T23:59:48.138Z,22.33
